LFLL/LYS METAR and TAF weather

Enter ICAO airport designator
Station Type Date Time Source
LFLL METAR 2019/05/25 15:00 UTC NOAA

LFLL 251500Z 34012KT 9999 FEW053TCU BKN110 23/09 Q1015 TEMPO 35015G25KT


Station Type Date Time Source
LFLL Decoded METAR 2019/05/25 15:00 UTC NOAA

Lyon / Satolas, France (LFLL) 45-44N 005-05E 240M
May 25, 2019 - 11:00 AM EDT / 2019.05.25 1500 UTC
Wind: from the NNW (340 degrees) at 14 MPH (12 KT):0
Visibility: greater than 7 mile(s):0
Sky conditions: mostly cloudy
Weather: Towering cumulus clouds observed
Temperature: 73 F (23 C)
Dew Point: 48 F (9 C)
Relative Humidity: 40%
Pressure (altimeter): 29.97 in. Hg (1015 hPa)
ob: LFLL 251500Z 34012KT 9999 FEW053TCU BKN110 23/09 Q1015 TEMPO 35015G25KT
cycle: 15

Station Type Date Time Source
LFLL TAF 2019/05/25 12:52 UTC NOAA

TAF LFLL 251100Z 2512/2618 34012KT 9999 FEW050 PROB40
TEMPO 2513/2519 36015G25KT 5000 SHRA SCT050TCU PROB30
TEMPO 2514/2518 4000 TSRA SCT040CB BKN050TCU PROB40
TEMPO 2519/2604 -SHRA FEW035TCU BKN060

Example: see airport list